createdAt,value
2018-12-04T00:00:56.002Z,18.30
2018-12-04T00:03:24.379Z,18.30
2018-12-04T00:05:54.985Z,18.30
2018-12-04T00:08:23.949Z,18.20
2018-12-04T00:10:52.498Z,18.20
2018-12-04T00:13:20.879Z,18.20
2018-12-04T00:15:49.304Z,18.20
2018-12-04T00:18:17.858Z,18.20
2018-12-04T00:20:46.325Z,18.20
2018-12-04T00:23:14.754Z,18.20
2018-12-04T00:25:43.206Z,18.10
2018-12-04T00:28:11.573Z,18.10
2018-12-04T00:30:40.135Z,18.10
2018-12-04T00:33:11.404Z,18.10
2018-12-04T00:35:39.798Z,18.10
2018-12-04T00:38:08.306Z,18.00
2018-12-04T00:40:38.101Z,18.00
2018-12-04T00:43:08.063Z,18.00
2018-12-04T00:45:37.458Z,18.00
2018-12-04T00:48:05.894Z,18.00
2018-12-04T00:50:34.289Z,17.90
2018-12-04T00:53:02.729Z,17.90
2018-12-04T00:55:39.383Z,17.90
2018-12-04T00:58:08.196Z,17.80
2018-12-04T01:00:36.802Z,17.80
2018-12-04T01:03:06.765Z,17.90
2018-12-04T01:05:35.138Z,17.80
2018-12-04T01:08:04.559Z,17.80
2018-12-04T01:10:32.922Z,17.70
2018-12-04T01:13:01.293Z,17.80
2018-12-04T01:15:29.739Z,17.80
2018-12-04T01:17:58.180Z,17.70
2018-12-04T01:20:27.751Z,17.70
2018-12-04T01:22:56.286Z,17.70
2018-12-04T01:25:24.670Z,17.60
2018-12-04T01:27:53.130Z,17.60
2018-12-04T01:30:21.913Z,17.60
2018-12-04T01:32:50.297Z,17.60
2018-12-04T01:35:19.761Z,17.60
2018-12-04T01:37:48.165Z,17.60
2018-12-04T01:40:19.179Z,17.60
2018-12-04T01:42:48.317Z,17.60
2018-12-04T01:45:18.084Z,17.60
2018-12-04T01:47:46.478Z,17.40
2018-12-04T01:50:14.958Z,17.50
2018-12-04T01:52:43.470Z,17.50
2018-12-04T01:55:11.985Z,17.50
2018-12-04T01:57:40.538Z,17.50
2018-12-04T02:00:10.205Z,17.50
2018-12-04T02:02:38.689Z,17.50
2018-12-04T02:05:07.138Z,17.50
2018-12-04T02:07:35.670Z,17.50
2018-12-04T02:10:02.369Z,17.50
2018-12-04T02:12:31.241Z,17.40
2018-12-04T02:14:59.687Z,17.50
2018-12-04T02:17:28.079Z,17.50
2018-12-04T02:19:57.825Z,17.50
2018-12-04T02:22:26.284Z,17.40
2018-12-04T02:24:54.650Z,17.50
2018-12-04T02:27:23.802Z,17.40
2018-12-04T02:29:52.189Z,17.40
2018-12-04T02:32:20.574Z,17.40
2018-12-04T02:34:51.480Z,17.40
2018-12-04T02:37:19.873Z,17.30
2018-12-04T02:39:50.430Z,17.30
2018-12-04T02:42:26.173Z,17.30
2018-12-04T02:44:56.755Z,17.40
2018-12-04T02:47:25.254Z,17.30
2018-12-04T02:49:53.624Z,17.30
2018-12-04T02:52:22.093Z,17.30
2018-12-04T02:54:50.610Z,17.30
2018-12-04T02:57:20.353Z,17.30
2018-12-04T02:59:48.725Z,17.30
2018-12-04T03:02:17.109Z,17.20
2018-12-04T03:04:45.526Z,17.20
2018-12-04T03:07:13.911Z,17.20
2018-12-04T03:09:42.461Z,17.20
2018-12-04T03:12:11.001Z,17.20
2018-12-04T03:14:39.366Z,17.10
2018-12-04T03:17:07.785Z,17.10
2018-12-04T03:19:37.670Z,17.10
2018-12-04T03:22:06.071Z,17.10
2018-12-04T03:24:34.457Z,17.00
2018-12-04T03:27:03.674Z,17.10
2018-12-04T03:29:32.030Z,17.10
2018-12-04T03:32:00.400Z,17.00
2018-12-04T03:34:29.787Z,17.00
2018-12-04T03:36:58.186Z,17.00
2018-12-04T03:39:26.577Z,17.00
2018-12-04T03:41:56.006Z,17.00
2018-12-04T03:44:25.633Z,16.90
2018-12-04T03:46:55.317Z,16.90
2018-12-04T03:49:23.693Z,16.90
2018-12-04T03:51:52.158Z,16.90
2018-12-04T03:54:21.981Z,16.90
2018-12-04T03:56:50.595Z,16.90
2018-12-04T03:59:18.969Z,16.90
2018-12-04T04:01:47.350Z,16.90
2018-12-04T04:04:15.719Z,16.80
2018-12-04T04:06:44.214Z,16.80
2018-12-04T04:09:12.593Z,16.80
2018-12-04T04:11:41.085Z,16.80
2018-12-04T04:14:09.458Z,16.70
2018-12-04T04:16:37.855Z,16.70
2018-12-04T04:19:07.195Z,16.80
2018-12-04T04:21:35.559Z,16.70
2018-12-04T04:24:05.263Z,16.70
2018-12-04T04:26:33.673Z,16.80
2018-12-04T04:29:02.102Z,16.80
2018-12-04T04:31:30.508Z,16.70
2018-12-04T04:34:00.293Z,16.70
2018-12-04T04:36:28.658Z,16.80
2018-12-04T04:38:57.039Z,16.70
2018-12-04T04:41:26.519Z,16.70
2018-12-04T04:43:56.240Z,16.70
2018-12-04T04:46:25.890Z,16.70
2018-12-04T04:48:54.258Z,16.70
2018-12-04T04:51:22.758Z,16.70
2018-12-04T04:53:52.549Z,16.70
2018-12-04T04:56:20.930Z,16.60
2018-12-04T04:58:49.304Z,16.60
2018-12-04T05:01:17.697Z,16.60
2018-12-04T05:03:46.197Z,16.60
2018-12-04T05:06:14.807Z,16.60
2018-12-04T05:08:43.194Z,16.60
2018-12-04T05:11:11.565Z,16.60
2018-12-04T05:13:40.055Z,16.50
2018-12-04T05:16:08.445Z,16.50
2018-12-04T05:18:37.151Z,16.50
2018-12-04T05:21:07.477Z,16.50
2018-12-04T05:23:36.666Z,16.50
2018-12-04T05:26:05.098Z,16.50
2018-12-04T05:28:33.473Z,16.50
2018-12-04T05:31:01.931Z,16.40
2018-12-04T05:33:31.325Z,16.40
2018-12-04T05:35:59.691Z,16.40
2018-12-04T05:38:28.088Z,16.40
2018-12-04T05:40:57.290Z,16.40
2018-12-04T05:43:27.045Z,16.40
2018-12-04T05:45:56.739Z,16.40
2018-12-04T05:48:25.115Z,16.40
2018-12-04T05:50:54.549Z,16.30
2018-12-04T05:53:32.346Z,16.30
2018-12-04T05:56:00.747Z,16.30
2018-12-04T05:58:29.097Z,16.30
2018-12-04T06:00:57.634Z,16.30
2018-12-04T06:03:26.013Z,16.30
2018-12-04T06:05:54.390Z,16.30
2018-12-04T06:08:22.836Z,16.30
2018-12-04T06:10:52.298Z,16.30
2018-12-04T06:13:20.702Z,16.30
2018-12-04T06:15:49.442Z,16.30
2018-12-04T06:18:18.975Z,16.30
2018-12-04T06:20:47.917Z,16.30
2018-12-04T06:23:16.294Z,16.30
2018-12-04T06:25:44.692Z,16.20
2018-12-04T06:28:13.074Z,16.20
2018-12-04T06:30:41.470Z,16.20
2018-12-04T06:33:10.826Z,16.20
2018-12-04T06:35:39.186Z,16.20
2018-12-04T06:38:07.539Z,16.20
2018-12-04T06:40:36.920Z,16.20
2018-12-04T06:43:09.261Z,16.20
2018-12-04T06:45:52.029Z,16.10
2018-12-04T06:48:24.382Z,16.10
2018-12-04T06:51:05.829Z,16.10
2018-12-04T06:53:46.824Z,16.10
2018-12-04T06:56:19.152Z,16.10
2018-12-04T06:59:00.187Z,16.10
2018-12-04T07:01:31.845Z,16.00
2018-12-04T07:04:13.373Z,16.00
2018-12-04T07:06:45.069Z,16.00
2018-12-04T07:09:27.178Z,16.00
2018-12-04T07:12:08.494Z,15.90
2018-12-04T07:14:50.516Z,15.90
2018-12-04T07:17:31.515Z,15.90
2018-12-04T07:20:13.703Z,15.90
2018-12-04T07:22:54.553Z,15.80
2018-12-04T07:25:35.594Z,15.80
2018-12-04T07:28:07.088Z,15.90
2018-12-04T07:30:48.626Z,15.80
2018-12-04T07:33:31.240Z,15.80
2018-12-04T07:36:02.646Z,15.80
2018-12-04T07:38:44.067Z,15.80
2018-12-04T07:41:16.540Z,15.80
2018-12-04T07:43:59.137Z,15.80
2018-12-04T07:46:41.431Z,15.80
2018-12-04T07:49:13.655Z,15.80
2018-12-04T07:51:45.814Z,15.80
2018-12-04T07:54:27.079Z,15.80
2018-12-04T07:57:35.251Z,15.70
2018-12-04T08:00:16.770Z,15.80
2018-12-04T08:02:48.133Z,15.80
2018-12-04T08:05:19.978Z,15.70
2018-12-04T08:07:48.351Z,15.70
2018-12-04T08:10:17.018Z,15.70
2018-12-04T08:12:59.027Z,15.80
2018-12-04T08:15:31.198Z,15.70
2018-12-04T08:18:13.380Z,15.80
2018-12-04T08:20:55.378Z,15.80
2018-12-04T08:23:25.004Z,15.70
2018-12-04T08:25:57.007Z,15.80
2018-12-04T08:28:28.992Z,15.70
2018-12-04T08:30:58.301Z,15.70
2018-12-04T08:33:41.425Z,15.70
2018-12-04T08:36:22.411Z,15.80
2018-12-04T08:39:21.639Z,15.80
2018-12-04T08:42:04.443Z,15.80
2018-12-04T08:44:46.321Z,15.80
2018-12-04T08:47:18.999Z,15.80
2018-12-04T08:49:47.390Z,15.90
2018-12-04T08:52:15.850Z,15.90
2018-12-04T08:54:49.770Z,15.90
2018-12-04T08:57:30.954Z,15.90
2018-12-04T08:59:59.383Z,15.90
2018-12-04T09:02:40.550Z,15.90
2018-12-04T09:05:09.325Z,15.90
2018-12-04T09:07:39.002Z,15.90
2018-12-04T09:10:07.411Z,15.90
2018-12-04T09:12:35.792Z,15.90
2018-12-04T09:15:04.225Z,15.90
2018-12-04T09:17:32.607Z,15.90
2018-12-04T09:20:02.301Z,15.90
2018-12-04T09:22:30.731Z,15.90
2018-12-04T09:24:59.198Z,15.90
2018-12-04T09:27:27.776Z,16.00
2018-12-04T09:29:56.464Z,16.00
2018-12-04T09:32:25.045Z,16.00
2018-12-04T09:34:53.891Z,16.00
2018-12-04T09:37:23.805Z,16.00
2018-12-04T09:39:53.242Z,16.00
2018-12-04T09:42:23.095Z,16.00
2018-12-04T09:44:52.726Z,16.00
2018-12-04T09:47:21.119Z,15.90
2018-12-04T09:49:49.482Z,16.00
2018-12-04T09:52:17.874Z,16.00
2018-12-04T09:54:46.242Z,16.00
2018-12-04T09:57:14.720Z,16.00
2018-12-04T09:59:43.817Z,16.00
2018-12-04T10:02:12.265Z,16.10
2018-12-04T10:04:40.772Z,16.20
2018-12-04T10:07:09.210Z,16.10
2018-12-04T10:09:37.590Z,16.10
2018-12-04T10:12:06.046Z,16.10
2018-12-04T10:14:34.560Z,16.10
2018-12-04T10:17:06.757Z,16.20
2018-12-04T10:19:39.167Z,16.30
2018-12-04T10:22:20.158Z,16.30
2018-12-04T10:25:01.167Z,16.30
2018-12-04T10:27:33.000Z,16.30
2018-12-04T10:30:07.812Z,16.30
2018-12-04T10:32:51.325Z,16.40
2018-12-04T10:35:24.683Z,16.50
2018-12-04T10:37:56.630Z,16.50
2018-12-04T10:40:30.662Z,16.60
2018-12-04T10:43:12.407Z,16.60
2018-12-04T10:45:45.122Z,16.60
2018-12-04T10:48:17.459Z,16.70
2018-12-04T10:50:50.346Z,16.70
2018-12-04T10:53:22.086Z,16.70
2018-12-04T10:55:54.282Z,16.70
2018-12-04T10:58:26.366Z,16.80
2018-12-04T11:01:07.050Z,16.80
2018-12-04T11:03:48.087Z,16.90
2018-12-04T11:06:19.729Z,16.90
2018-12-04T11:08:52.832Z,16.90
2018-12-04T11:11:24.515Z,17.00
2018-12-04T11:13:56.666Z,17.00
2018-12-04T11:16:37.806Z,17.00
2018-12-04T11:19:10.980Z,17.00
2018-12-04T11:21:43.193Z,16.90
2018-12-04T11:24:15.466Z,16.90
2018-12-04T11:26:57.004Z,16.90
2018-12-04T11:29:38.002Z,17.00
2018-12-04T11:32:20.459Z,17.20
2018-12-04T11:34:53.171Z,17.10
2018-12-04T11:37:26.429Z,17.10
2018-12-04T11:39:59.246Z,17.10
2018-12-04T11:42:42.271Z,17.20
2018-12-04T11:45:15.443Z,17.20
2018-12-04T11:47:47.683Z,17.30
2018-12-04T11:50:19.937Z,17.40
2018-12-04T11:52:52.229Z,17.40
2018-12-04T11:55:24.732Z,17.40
2018-12-04T11:57:56.824Z,17.50
2018-12-04T12:00:38.410Z,17.60
2018-12-04T12:03:11.639Z,17.60
2018-12-04T12:05:43.637Z,17.60
2018-12-04T12:08:25.209Z,17.70
2018-12-04T12:11:06.362Z,17.70
2018-12-04T12:13:38.067Z,17.80
2018-12-04T12:16:10.029Z,17.80
2018-12-04T12:18:42.610Z,17.90
2018-12-04T12:21:23.897Z,17.90
2018-12-04T12:24:04.673Z,17.90
2018-12-04T12:26:45.518Z,17.90
2018-12-04T12:29:27.576Z,18.00
2018-12-04T12:32:08.572Z,18.10
2018-12-04T12:34:50.191Z,18.10
2018-12-04T12:37:22.214Z,18.10
2018-12-04T12:39:55.041Z,18.10
2018-12-04T12:42:37.358Z,18.20
2018-12-04T12:45:11.359Z,18.20
2018-12-04T12:47:52.493Z,18.20
2018-12-04T12:50:22.168Z,18.20
2018-12-04T12:52:52.622Z,18.30
2018-12-04T12:55:21.003Z,18.30
2018-12-04T12:57:49.457Z,18.30
2018-12-04T13:00:21.986Z,18.30
2018-12-04T13:02:54.054Z,18.30
2018-12-04T13:05:37.361Z,18.30
2018-12-04T13:08:18.415Z,18.30
2018-12-04T13:10:50.422Z,18.40
2018-12-04T13:13:22.311Z,18.40
2018-12-04T13:16:03.626Z,18.40
2018-12-04T13:18:35.750Z,18.40
2018-12-04T13:21:06.190Z,18.40
2018-12-04T13:23:47.432Z,18.30
2018-12-04T13:26:29.245Z,18.40
2018-12-04T13:29:24.158Z,18.40
2018-12-04T13:32:05.311Z,18.40
2018-12-04T13:34:47.589Z,18.40
2018-12-04T13:37:56.054Z,18.50
2018-12-04T13:40:28.727Z,18.50
2018-12-04T13:43:01.666Z,18.50
2018-12-04T13:45:43.308Z,18.50
2018-12-04T13:48:24.693Z,18.50
2018-12-04T13:51:05.809Z,18.50
2018-12-04T13:53:46.679Z,18.50
2018-12-04T13:56:27.820Z,18.50
2018-12-04T13:59:08.632Z,18.50
2018-12-04T14:01:41.599Z,18.50
2018-12-04T14:04:16.990Z,18.50
2018-12-04T14:06:48.561Z,18.50
2018-12-04T14:09:31.174Z,18.50
2018-12-04T14:12:12.262Z,18.50
2018-12-04T14:14:43.746Z,18.40
2018-12-04T14:17:17.110Z,18.40
2018-12-04T14:19:49.947Z,18.40
2018-12-04T14:22:31.335Z,18.30
2018-12-04T14:25:03.352Z,18.30
2018-12-04T14:27:35.446Z,18.10
2018-12-04T14:30:10.584Z,18.20
2018-12-04T14:32:42.789Z,18.20
2018-12-04T14:35:11.863Z,18.10
2018-12-04T14:37:43.625Z,18.20
2018-12-04T14:40:13.087Z,18.20
2018-12-04T14:45:24.657Z,18.20
2018-12-04T14:47:56.196Z,18.20
2018-12-04T14:50:24.741Z,18.10
2018-12-04T14:52:56.387Z,18.00
2018-12-04T14:55:24.989Z,18.00
2018-12-04T14:57:53.454Z,17.90
2018-12-04T15:00:21.880Z,17.90
2018-12-04T15:02:50.358Z,17.80
2018-12-04T15:05:18.994Z,17.60
2018-12-04T15:07:47.700Z,17.50
2018-12-04T15:10:16.118Z,17.50
2018-12-04T15:12:44.553Z,17.50
2018-12-04T15:15:13.088Z,17.50
2018-12-04T15:17:41.613Z,17.40
2018-12-04T15:20:11.968Z,17.40
2018-12-04T15:22:40.544Z,17.40
2018-12-04T15:25:08.987Z,17.40
2018-12-04T15:27:37.466Z,17.30
2018-12-04T15:30:06.060Z,17.30
2018-12-04T15:32:34.688Z,17.20
2018-12-04T15:35:04.450Z,17.20
2018-12-04T15:37:32.843Z,17.10
2018-12-04T15:40:02.701Z,17.10
2018-12-04T15:42:32.674Z,17.10
2018-12-04T15:45:02.745Z,18.50
2018-12-04T15:47:31.198Z,17.00
2018-12-04T15:50:00.621Z,17.00
2018-12-04T15:52:29.134Z,16.90
2018-12-04T15:54:57.507Z,16.90
2018-12-04T15:57:26.003Z,16.90
2018-12-04T15:59:54.423Z,16.80
2018-12-04T16:02:23.121Z,16.80
2018-12-04T16:04:51.551Z,16.70
2018-12-04T16:07:19.945Z,16.70
2018-12-04T16:09:48.362Z,16.70
2018-12-04T16:12:16.899Z,16.70
2018-12-04T16:14:45.699Z,16.70
2018-12-04T16:17:15.326Z,16.60
2018-12-04T16:19:46.021Z,16.70
2018-12-04T16:22:14.416Z,16.70
2018-12-04T16:24:42.794Z,16.60
2018-12-04T16:27:11.178Z,16.60
2018-12-04T16:29:39.650Z,16.50
2018-12-04T16:32:08.161Z,16.50
2018-12-04T16:34:37.932Z,16.50
2018-12-04T16:37:06.363Z,16.40
2018-12-04T16:39:36.431Z,16.50
2018-12-04T16:42:04.831Z,16.50
2018-12-04T16:44:34.509Z,16.40
2018-12-04T16:47:06.616Z,16.40
2018-12-04T16:49:35.050Z,16.40
2018-12-04T16:52:03.769Z,16.50
2018-12-04T16:54:32.150Z,16.50
2018-12-04T16:57:03.077Z,16.80
2018-12-04T16:59:32.138Z,17.20
2018-12-04T17:02:00.504Z,17.50
2018-12-04T17:04:29.332Z,18.00
2018-12-04T17:06:57.806Z,18.30
2018-12-04T17:09:26.787Z,18.60
2018-12-04T17:11:55.797Z,18.90
2018-12-04T17:14:24.199Z,19.00
2018-12-04T17:16:52.617Z,19.20
2018-12-04T17:19:21.805Z,19.20
2018-12-04T17:21:50.289Z,19.40
2018-12-04T17:24:18.664Z,19.50
2018-12-04T17:26:47.102Z,19.60
2018-12-04T17:29:15.639Z,19.70
2018-12-04T17:31:47.349Z,19.80
2018-12-04T17:34:16.210Z,19.70
2018-12-04T17:36:44.869Z,19.70
2018-12-04T17:39:13.242Z,19.80
2018-12-04T17:41:43.526Z,19.90
2018-12-04T17:44:12.631Z,19.90
2018-12-04T17:46:42.417Z,19.90
2018-12-04T17:49:10.846Z,20.10
2018-12-04T17:51:40.517Z,20.20
2018-12-04T17:54:08.878Z,20.20
2018-12-04T17:56:37.300Z,20.20
2018-12-04T17:59:05.742Z,20.20
2018-12-04T18:01:34.207Z,20.20
2018-12-04T18:04:02.809Z,20.30
2018-12-04T18:06:31.236Z,20.30
2018-12-04T18:08:59.682Z,20.30
2018-12-04T18:11:28.735Z,20.40
2018-12-04T18:13:57.104Z,20.50
2018-12-04T18:16:25.473Z,20.40
2018-12-04T18:18:53.903Z,20.40
2018-12-04T18:21:24.503Z,20.40
2018-12-04T18:23:54.078Z,20.50
2018-12-04T18:26:22.510Z,20.50
2018-12-04T18:28:50.888Z,20.40
2018-12-04T18:31:19.315Z,20.40
2018-12-04T18:33:48.673Z,20.50
2018-12-04T18:36:17.242Z,20.40
2018-12-04T18:38:46.490Z,20.40
2018-12-04T18:41:15.695Z,20.40
2018-12-04T18:43:44.642Z,20.40
2018-12-04T18:46:13.865Z,20.40
2018-12-04T18:48:42.342Z,20.40
2018-12-04T18:51:10.702Z,20.30
2018-12-04T18:53:39.176Z,20.30
2018-12-04T18:56:07.549Z,20.40
2018-12-04T18:58:36.061Z,20.40
2018-12-04T19:01:04.440Z,20.30
2018-12-04T19:03:32.829Z,20.10
2018-12-04T19:06:01.197Z,20.20
2018-12-04T19:08:35.046Z,20.30
2018-12-04T19:11:03.910Z,20.20
2018-12-04T19:13:33.398Z,20.20
2018-12-04T19:16:01.870Z,20.20
2018-12-04T19:18:30.260Z,20.20
2018-12-04T19:21:00.061Z,20.20
2018-12-04T19:23:28.437Z,20.20
2018-12-04T19:25:56.906Z,20.10
2018-12-04T19:28:25.366Z,20.10
2018-12-04T19:30:53.748Z,20.20
2018-12-04T19:33:23.500Z,20.20
2018-12-04T19:35:51.888Z,20.10
2018-12-04T19:38:21.268Z,20.00
2018-12-04T19:40:50.213Z,20.00
2018-12-04T19:43:19.490Z,20.20
2018-12-04T19:45:49.062Z,20.20
2018-12-04T19:48:17.442Z,20.10
2018-12-04T19:50:45.840Z,20.00
2018-12-04T19:53:14.369Z,20.10
2018-12-04T19:55:42.742Z,20.20
2018-12-04T19:58:11.215Z,20.10
2018-12-04T20:00:39.841Z,20.00
2018-12-04T20:03:08.211Z,20.00
2018-12-04T20:05:36.580Z,20.10
2018-12-04T20:08:05.682Z,20.20
2018-12-04T20:10:34.854Z,20.10
2018-12-04T20:13:03.209Z,19.90
2018-12-04T20:15:31.573Z,20.00
2018-12-04T20:18:00.312Z,20.20
2018-12-04T20:20:29.538Z,20.10
2018-12-04T20:22:57.901Z,20.00
2018-12-04T20:25:26.286Z,19.80
2018-12-04T20:27:54.797Z,20.00
2018-12-04T20:30:23.162Z,20.10
2018-12-04T20:32:59.672Z,20.10
2018-12-04T20:35:24.115Z,19.90
2018-12-04T20:37:52.506Z,19.80
2018-12-04T20:40:21.846Z,20.00
2018-12-04T20:42:51.252Z,20.10
2018-12-04T20:45:20.477Z,20.00
2018-12-04T20:47:48.877Z,19.90
2018-12-04T20:50:17.273Z,19.90
2018-12-04T20:52:45.787Z,20.00
2018-12-04T20:55:14.166Z,20.10
2018-12-04T20:57:42.705Z,19.90
2018-12-04T21:00:12.506Z,19.80
2018-12-04T21:02:41.011Z,19.90
2018-12-04T21:05:09.360Z,20.10
2018-12-04T21:07:38.934Z,20.00
2018-12-04T21:10:07.446Z,19.90
2018-12-04T21:12:35.857Z,19.80
2018-12-04T21:15:04.627Z,19.90
2018-12-04T21:17:32.990Z,20.10
2018-12-04T21:20:01.803Z,20.00
2018-12-04T21:22:30.168Z,19.80
2018-12-04T21:24:58.565Z,19.80
2018-12-04T21:27:35.161Z,20.00
2018-12-04T21:30:08.780Z,20.10
2018-12-04T21:32:43.080Z,19.90
2018-12-04T21:35:17.728Z,19.80
2018-12-04T21:37:51.369Z,19.60
2018-12-04T21:40:26.447Z,19.60
2018-12-04T21:43:01.354Z,19.80
2018-12-04T21:45:35.640Z,19.80
2018-12-04T21:48:06.930Z,19.70
2018-12-04T21:50:35.421Z,19.70
2018-12-04T21:53:03.801Z,19.60
2018-12-04T21:55:32.303Z,19.70
2018-12-04T21:58:00.657Z,19.80
2018-12-04T22:00:29.155Z,19.70
2018-12-04T22:02:57.520Z,19.70
2018-12-04T22:05:26.720Z,19.60
2018-12-04T22:07:55.091Z,19.40
2018-12-04T22:10:23.613Z,19.30
2018-12-04T22:12:52.861Z,19.30
2018-12-04T22:15:21.222Z,19.20
2018-12-04T22:17:49.800Z,19.20
2018-12-04T22:20:18.639Z,19.10
2018-12-04T22:22:47.969Z,19.00
2018-12-04T22:25:16.430Z,18.90
2018-12-04T22:27:44.814Z,18.80
2018-12-04T22:30:13.781Z,18.70
2018-12-04T22:32:42.138Z,18.70
2018-12-04T22:35:11.994Z,18.60
2018-12-04T22:37:40.409Z,18.50
2018-12-04T22:40:09.653Z,18.50
2018-12-04T22:42:38.466Z,18.40
2018-12-04T22:45:14.405Z,18.40
2018-12-04T22:47:42.783Z,18.30
2018-12-04T22:50:11.141Z,18.30
2018-12-04T22:52:39.566Z,18.30
2018-12-04T22:55:07.994Z,18.20
2018-12-04T22:57:36.491Z,18.20
2018-12-04T23:00:06.218Z,18.10
2018-12-04T23:02:34.599Z,18.00
2018-12-04T23:05:02.970Z,17.90
2018-12-04T23:07:31.839Z,17.80
2018-12-04T23:10:00.226Z,17.80
2018-12-04T23:12:28.626Z,17.80
2018-12-04T23:14:57.047Z,17.80
2018-12-04T23:17:26.157Z,17.70
2018-12-04T23:19:55.845Z,17.60
2018-12-04T23:22:24.264Z,17.60
2018-12-04T23:24:52.710Z,17.70
2018-12-04T23:27:21.131Z,17.80
2018-12-04T23:29:49.934Z,17.90
2018-12-04T23:32:19.141Z,18.00
2018-12-04T23:34:47.842Z,18.00
2018-12-04T23:37:21.977Z,17.90
2018-12-04T23:39:50.962Z,17.80
2018-12-04T23:42:19.911Z,17.70
2018-12-04T23:44:48.871Z,17.60
2018-12-04T23:47:18.399Z,17.50
2018-12-04T23:49:46.881Z,17.60
2018-12-04T23:52:15.421Z,17.60
2018-12-04T23:54:43.832Z,17.60
2018-12-04T23:57:13.655Z,17.70
